Time;durP1;ratioP1;P1;durP2;ratioP2;P2;SDS_P1;SDS_P2;PMS_P1;PMS_P2;Temp;Humidity;BMP_temperature;BMP_pressure;BME280_temperature;BME280_humidity;BME280_pressure;Samples;Min_cycle;Max_cycle;Signal;HPM_P1;HPM_P2
2021/09/06 00:00:12;;;;;;;6.53;4.40;;;18.80;73.20;;;;;;5095546;28;20484;-69
2021/09/06 00:02:40;;;;;;;9.13;5.05;;;18.70;72.60;;;;;;5094984;28;20044;-68
2021/09/06 00:05:09;;;;;;;6.20;4.35;;;18.70;72.80;;;;;;5077210;28;20389;-69
2021/09/06 00:07:36;;;;;;;8.77;4.60;;;18.60;73.50;;;;;;5077228;28;20024;-69
2021/09/06 00:10:35;;;;;;;6.13;4.93;;;18.50;75.10;;;;;;5095337;28;20028;-69
2021/09/06 00:13:03;;;;;;;7.85;5.28;;;18.50;74.90;;;;;;5095249;28;20469;-68
2021/09/06 00:15:29;;;;;;;7.82;4.88;;;18.50;75.00;;;;;;5095167;28;20036;-68
2021/09/06 00:17:56;;;;;;;6.85;4.35;;;18.50;75.50;;;;;;5095448;28;20024;-68
2021/09/06 00:20:23;;;;;;;7.90;5.13;;;18.50;75.60;;;;;;5095136;28;20032;-71
2021/09/06 00:22:49;;;;;;;7.55;4.82;;;18.40;76.00;;;;;;5094464;28;20099;-68
2021/09/06 00:25:15;;;;;;;7.60;5.55;;;18.30;76.00;;;;;;5095043;28;20097;-68
2021/09/06 00:27:41;;;;;;;9.20;4.95;;;18.30;75.10;;;;;;5094980;28;20031;-68
2021/09/06 00:30:08;;;;;;;5.78;4.97;;;;;;;;;;5094943;28;20027;-68
2021/09/06 00:32:34;;;;;;;7.63;4.75;;;16.40;75.40;;;;;;5094879;28;20062;-67
2021/09/06 00:35:00;;;;;;;7.60;5.22;;;17.90;77.00;;;;;;5076601;28;20083;-66
2021/09/06 00:37:26;;;;;;;7.35;5.40;;;;;;;;;;5094744;28;20556;-67
2021/09/06 00:39:52;;;;;;;9.50;5.50;;;17.80;76.90;;;;;;5094753;28;20020;-67
2021/09/06 00:42:18;;;;;;;9.63;5.30;;;17.70;77.80;;;;;;5094400;28;20380;-68
2021/09/06 00:44:44;;;;;;;12.55;5.03;;;17.70;77.00;;;;;;5094608;28;20032;-67
2021/09/06 00:47:09;;;;;;;8.70;4.40;;;17.70;77.20;;;;;;5094870;28;20020;-67
2021/09/06 00:49:35;;;;;;;8.98;5.55;;;17.60;76.40;;;;;;5094196;28;20032;-69
2021/09/06 00:52:02;;;;;;;8.10;5.03;;;17.50;77.20;;;;;;5094526;28;20029;-69
2021/09/06 00:54:28;;;;;;;7.60;4.60;;;17.50;78.20;;;;;;5094339;28;20040;-68
2021/09/06 00:56:54;;;;;;;10.68;4.90;;;17.50;77.70;;;;;;5094408;28;20362;-69
2021/09/06 00:59:20;;;;;;;7.72;4.18;;;17.40;78.20;;;;;;5094612;28;20029;-68
2021/09/06 01:01:46;;;;;;;6.10;4.38;;;17.30;79.50;;;;;;5075806;28;20055;-68
2021/09/06 01:04:11;;;;;;;7.93;4.40;;;17.30;78.50;;;;;;5094246;28;20028;-66
2021/09/06 01:06:37;;;;;;;6.65;4.43;;;17.30;78.30;;;;;;5094480;28;20027;-67
2021/09/06 01:09:03;;;;;;;6.30;4.50;;;17.20;77.90;;;;;;5094211;28;20392;-66
2021/09/06 01:11:30;;;;;;;8.10;3.92;;;17.20;78.20;;;;;;5094166;28;20020;-65
2021/09/06 01:13:57;;;;;;;7.03;4.28;;;17.20;79.60;;;;;;5075830;28;20118;-66
2021/09/06 01:16:23;;;;;;;7.22;4.45;;;17.20;79.20;;;;;;5094033;28;20074;-65
2021/09/06 01:18:50;;;;;;;5.90;4.47;;;17.10;78.10;;;;;;5075719;28;20028;-67
2021/09/06 01:21:16;;;;;;;7.45;4.70;;;17.10;78.30;;;;;;5075809;28;20024;-67
2021/09/06 01:23:42;;;;;;;6.93;4.30;;;17.00;79.40;;;;;;5093912;28;20031;-68
2021/09/06 01:26:09;;;;;;;6.10;4.68;;;17.00;80.30;;;;;;5093831;28;20057;-69
2021/09/06 01:28:36;;;;;;;4.90;4.38;;;16.90;79.80;;;;;;5093590;28;20491;-69
2021/09/06 01:31:02;;;;;;;9.80;4.75;;;16.90;78.90;;;;;;5093866;28;20024;-68
2021/09/06 01:33:28;;;;;;;8.18;5.00;;;16.80;79.20;;;;;;5093008;28;20107;-69
2021/09/06 01:35:54;;;;;;;7.13;4.40;;;16.80;79.00;;;;;;5093975;28;20154;-68
2021/09/06 01:38:20;;;;;;;10.40;4.60;;;16.80;78.70;;;;;;5075423;28;20028;-68
2021/09/06 01:40:46;;;;;;;7.40;4.40;;;16.80;79.10;;;;;;5093383;28;20024;-69
2021/09/06 01:43:12;;;;;;;6.82;4.20;;;16.80;79.40;;;;;;5093608;28;20047;-71
2021/09/06 01:45:38;;;;;;;4.97;4.13;;;16.70;79.70;;;;;;5093503;28;20368;-71
2021/09/06 01:48:04;;;;;;;7.78;4.28;;;16.70;79.80;;;;;;5093470;28;20520;-68
2021/09/06 01:50:30;;;;;;;6.53;3.78;;;16.70;79.70;;;;;;5093547;28;20028;-68
2021/09/06 01:52:56;;;;;;;5.13;3.85;;;16.70;79.10;;;;;;5093098;28;20103;-68
2021/09/06 01:55:22;;;;;;;8.48;4.03;;;16.70;79.50;;;;;;5093059;28;20032;-71
2021/09/06 01:57:47;;;;;;;8.23;4.72;;;16.60;80.60;;;;;;5093373;28;20078;-68
2021/09/06 02:00:14;;;;;;;7.40;3.95;;;16.60;80.50;;;;;;5075107;28;20024;-68
2021/09/06 02:02:40;;;;;;;10.55;4.53;;;16.50;80.40;;;;;;5074756;28;20082;-68
2021/09/06 02:05:06;;;;;;;5.07;3.30;;;16.60;80.40;;;;;;5075088;28;20028;-69
2021/09/06 02:07:32;;;;;;;5.60;3.50;;;16.60;79.60;;;;;;5093242;28;20036;-68
2021/09/06 02:09:58;;;;;;;4.35;3.22;;;16.60;79.30;;;;;;5093313;28;20032;-66
2021/09/06 02:12:24;;;;;;;6.18;4.28;;;16.60;80.00;;;;;;5093453;28;20028;-69
2021/09/06 02:14:50;;;;;;;7.20;3.78;;;16.60;79.80;;;;;;5093086;28;20036;-69
2021/09/06 02:17:16;;;;;;;6.05;3.90;;;16.50;82.20;;;;;;5093093;28;20032;-67
2021/09/06 02:19:42;;;;;;;5.63;4.03;;;16.50;82.80;;;;;;5093092;28;20372;-66
2021/09/06 02:22:08;;;;;;;5.45;3.80;;;16.40;81.70;;;;;;5093092;28;20030;-70
2021/09/06 02:24:34;;;;;;;7.97;4.50;;;16.30;81.70;;;;;;5074542;28;20115;-66
2021/09/06 02:27:00;;;;;;;7.85;3.95;;;16.30;81.20;;;;;;5074910;28;20020;-69
2021/09/06 02:29:26;;;;;;;8.75;4.22;;;16.30;81.00;;;;;;5092959;28;20471;-67
2021/09/06 02:31:52;;;;;;;7.82;4.85;;;16.20;82.10;;;;;;5093050;28;20535;-67
2021/09/06 02:34:17;;;;;;;10.98;4.43;;;16.20;82.70;;;;;;5074686;28;20043;-67
2021/09/06 02:36:43;;;;;;;8.77;4.60;;;16.10;82.80;;;;;;5093209;28;20024;-66
2021/09/06 02:39:09;;;;;;;11.27;4.55;;;16.10;84.00;;;;;;5092937;28;20099;-66
2021/09/06 02:41:35;;;;;;;10.35;4.65;;;16.00;84.30;;;;;;5092914;28;20473;-67
2021/09/06 02:44:01;;;;;;;7.30;4.75;;;16.00;84.50;;;;;;5074700;28;20120;-66
2021/09/06 02:46:27;;;;;;;17.27;5.75;;;15.90;85.10;;;;;;5078287;28;20020;-67
2021/09/06 02:48:53;;;;;;;10.18;5.68;;;15.80;85.10;;;;;;5096903;28;20453;-68
2021/09/06 02:51:18;;;;;;;11.63;5.72;;;15.80;85.40;;;;;;5097208;28;20028;-69
2021/09/06 02:53:44;;;;;;;6.00;4.20;;;15.70;85.10;;;;;;5096383;28;20075;-70
2021/09/06 02:56:10;;;;;;;8.45;4.72;;;15.70;85.30;;;;;;5096727;28;20178;-69
2021/09/06 02:58:36;;;;;;;9.65;4.93;;;15.70;85.60;;;;;;5078468;28;20393;-67
2021/09/06 03:01:02;;;;;;;9.70;5.18;;;15.70;85.50;;;;;;5096358;28;20039;-67
2021/09/06 03:03:27;;;;;;;9.13;5.20;;;15.60;85.70;;;;;;5096681;28;20031;-68
2021/09/06 03:05:54;;;;;;;9.93;5.20;;;15.60;87.10;;;;;;5096598;28;20020;-69
2021/09/06 03:08:20;;;;;;;8.93;4.88;;;15.50;87.20;;;;;;5078236;28;20078;-69
2021/09/06 03:10:46;;;;;;;12.05;5.05;;;15.50;86.30;;;;;;5096837;28;20032;-67
2021/09/06 03:13:12;;;;;;;12.30;5.72;;;15.40;86.30;;;;;;5096445;28;20043;-67
2021/09/06 03:15:38;;;;;;;10.43;5.60;;;15.40;86.70;;;;;;5095997;28;20047;-69
2021/09/06 03:18:04;;;;;;;13.77;5.82;;;15.30;87.90;;;;;;5096333;28;20491;-71
2021/09/06 03:20:30;;;;;;;20.38;6.15;;;15.30;87.80;;;;;;5096263;28;20028;-70
2021/09/06 03:22:55;;;;;;;15.73;6.85;;;15.20;88.90;;;;;;5078096;28;20043;-69
2021/09/06 03:25:21;;;;;;;14.65;5.90;;;15.10;88.80;;;;;;5096200;28;20028;-71
2021/09/06 03:27:47;;;;;;;10.13;5.75;;;15.10;88.50;;;;;;5096159;28;20460;-70
2021/09/06 03:30:13;;;;;;;9.88;5.10;;;15.10;88.30;;;;;;5096080;28;20547;-70
2021/09/06 03:32:39;;;;;;;7.75;5.25;;;15.00;88.40;;;;;;5096132;28;20031;-70
2021/09/06 03:35:05;;;;;;;8.40;5.50;;;15.00;88.60;;;;;;5095989;28;20096;-70
2021/09/06 03:37:31;;;;;;;8.50;5.75;;;15.00;88.70;;;;;;5095960;28;20119;-69
2021/09/06 03:39:57;;;;;;;9.82;5.63;;;15.10;88.40;;;;;;5096164;28;20111;-69
2021/09/06 03:42:23;;;;;;;7.88;5.35;;;15.10;88.80;;;;;;5077361;28;20021;-71
2021/09/06 03:44:49;;;;;;;10.00;4.95;;;15.10;89.10;;;;;;5095835;28;20035;-70
2021/09/06 03:47:15;;;;;;;19.80;5.45;;;15.20;89.00;;;;;;5095771;28;20036;-70
2021/09/06 03:49:41;;;;;;;14.57;5.22;;;15.20;88.90;;;;;;5095715;28;20031;-71
2021/09/06 03:52:06;;;;;;;13.52;5.20;;;15.20;90.00;;;;;;5077529;28;20020;-72
2021/09/06 03:54:32;;;;;;;8.95;4.93;;;15.20;90.10;;;;;;5077534;28;20036;-73
2021/09/06 03:56:58;;;;;;;11.65;5.55;;;15.20;90.00;;;;;;5094560;28;20031;-71
2021/09/06 03:59:24;;;;;;;6.95;3.97;;;15.20;90.00;;;;;;5077351;28;20464;-70
2021/09/06 04:01:50;;;;;;;10.35;4.00;;;15.20;88.70;;;;;;5076956;28;20133;-70
2021/09/06 04:04:16;;;;;;;12.63;4.55;;;15.20;88.00;;;;;;5095438;28;20042;-69
2021/09/06 04:06:43;;;;;;;12.63;4.63;;;15.30;88.50;;;;;;5095005;28;20051;-71
2021/09/06 04:09:09;;;;;;;11.73;4.80;;;15.30;89.40;;;;;;5095354;28;20028;-67
2021/09/06 04:11:35;;;;;;;9.82;4.97;;;15.30;90.10;;;;;;5095325;28;20024;-66
2021/09/06 04:14:01;;;;;;;10.93;4.97;;;15.30;90.30;;;;;;5076956;28;20042;-69
2021/09/06 04:16:27;;;;;;;9.25;4.68;;;15.20;90.60;;;;;;5095188;28;20028;-70
2021/09/06 04:18:53;;;;;;;14.15;4.35;;;15.20;90.60;;;;;;5076653;28;20031;-71
2021/09/06 04:21:18;;;;;;;10.35;4.65;;;15.20;90.20;;;;;;5095060;28;20028;-68
2021/09/06 04:23:44;;;;;;;9.98;4.53;;;15.20;89.90;;;;;;5076920;28;20065;-71
2021/09/06 04:26:10;;;;;;;10.02;4.82;;;15.20;90.10;;;;;;5076868;28;20024;-71
2021/09/06 04:28:36;;;;;;;10.38;5.32;;;15.20;90.30;;;;;;5076701;28;20032;-68
2021/09/06 04:31:02;;;;;;;19.02;5.03;;;15.20;90.00;;;;;;5094880;28;20053;-68
2021/09/06 04:33:28;;;;;;;12.13;5.20;;;15.20;89.70;;;;;;5076676;28;20025;-70
2021/09/06 04:35:53;;;;;;;16.48;5.15;;;15.30;89.30;;;;;;5094426;28;20119;-68
2021/09/06 04:38:19;;;;;;;9.63;4.93;;;15.30;89.40;;;;;;5094772;28;20032;-70
2021/09/06 04:40:45;;;;;;;10.15;5.78;;;15.30;89.80;;;;;;5076398;28;20462;-70
2021/09/06 04:43:11;;;;;;;11.57;5.68;;;15.30;89.30;;;;;;5094708;28;20032;-68
2021/09/06 04:45:37;;;;;;;14.60;6.25;;;15.30;89.20;;;;;;5094615;28;20385;-69
2021/09/06 04:48:03;;;;;;;13.65;5.72;;;15.30;90.20;;;;;;5094468;28;20453;-70
2021/09/06 04:50:29;;;;;;;11.10;6.43;;;15.40;89.30;;;;;;5076158;28;20036;-70
2021/09/06 04:52:55;;;;;;;16.17;6.32;;;15.40;89.20;;;;;;5094439;28;20107;-70
2021/09/06 04:55:22;;;;;;;11.27;5.78;;;15.50;89.70;;;;;;5093940;28;20411;-69
2021/09/06 04:57:48;;;;;;;9.45;5.70;;;15.50;90.40;;;;;;5094421;28;20028;-69
2021/09/06 05:00:14;;;;;;;12.10;5.90;;;15.60;90.10;;;;;;5094628;28;20089;-70
2021/09/06 05:02:40;;;;;;;12.63;6.00;;;15.70;90.00;;;;;;5094318;28;20052;-70
2021/09/06 05:05:06;;;;;;;15.00;6.78;;;15.80;89.50;;;;;;5076017;28;20503;-70
2021/09/06 05:07:32;;;;;;;18.58;6.95;;;15.90;89.80;;;;;;5093851;28;20085;-72
2021/09/06 05:09:58;;;;;;;14.27;6.40;;;16.00;88.90;;;;;;5094432;28;20024;-71
2021/09/06 05:12:24;;;;;;;18.05;6.55;;;16.00;89.50;;;;;;5094168;28;20513;-69
2021/09/06 05:14:50;;;;;;;24.17;8.63;;;16.10;89.30;;;;;;5093973;28;20057;-69
2021/09/06 05:17:15;;;;;;;15.70;7.38;;;16.10;90.30;;;;;;5075831;28;20043;-68
2021/09/06 05:19:41;;;;;;;11.55;5.60;;;16.20;90.30;;;;;;5075716;28;20174;-71
2021/09/06 05:22:08;;;;;;;15.30;5.90;;;16.30;89.10;;;;;;5093965;28;20055;-68
2021/09/06 05:24:33;;;;;;;12.23;5.50;;;16.40;88.70;;;;;;5093833;28;20028;-70
2021/09/06 05:26:59;;;;;;;13.30;5.72;;;16.60;88.40;;;;;;5093519;28;20024;-69
2021/09/06 05:29:25;;;;;;;13.30;5.82;;;16.60;88.60;;;;;;5093235;28;20107;-68
2021/09/06 05:31:51;;;;;;;10.60;5.18;;;16.70;87.80;;;;;;5093642;28;20027;-69
2021/09/06 05:34:17;;;;;;;9.90;5.97;;;16.80;87.90;;;;;;5093615;28;20028;-68
2021/09/06 05:36:43;;;;;;;13.75;5.75;;;16.70;87.80;;;;;;5075409;28;20031;-69
2021/09/06 05:39:08;;;;;;;9.52;5.63;;;16.60;88.40;;;;;;5093613;28;20032;-68
2021/09/06 05:41:35;;;;;;;14.80;5.75;;;16.70;88.90;;;;;;5075320;28;20051;-68
2021/09/06 05:44:04;;;;;;;15.13;6.15;;;16.70;88.70;;;;;;5075503;28;20379;-68
2021/09/06 05:46:30;;;;;;;9.73;6.38;;;16.80;88.70;;;;;;5093364;28;20027;-68
2021/09/06 05:48:56;;;;;;;18.65;6.60;;;16.80;88.60;;;;;;5093373;28;20077;-69
2021/09/06 05:51:22;;;;;;;11.35;6.28;;;16.80;89.20;;;;;;5093400;28;20410;-70
2021/09/06 05:53:48;;;;;;;15.95;7.15;;;16.80;89.40;;;;;;5093547;28;20081;-69
2021/09/06 05:56:18;;;;;;;14.52;6.30;;;16.70;90.80;;;;;;5093000;28;20083;-69
2021/09/06 05:58:44;;;;;;;15.13;7.22;;;16.60;91.00;;;;;;5093156;28;20024;-68
2021/09/06 06:01:11;;;;;;;15.52;7.35;;;16.60;91.30;;;;;;5092979;28;20035;-70
2021/09/06 06:03:37;;;;;;;13.40;6.82;;;16.50;91.20;;;;;;5092286;28;20114;-67
2021/09/06 06:06:02;;;;;;;15.90;6.70;;;16.50;91.30;;;;;;5093324;28;20426;-68
2021/09/06 06:08:28;;;;;;;14.13;6.55;;;16.50;91.70;;;;;;5093149;28;20030;-68
2021/09/06 06:10:54;;;;;;;11.25;6.20;;;16.60;92.10;;;;;;5093099;28;20495;-68
2021/09/06 06:13:20;;;;;;;16.02;5.75;;;16.60;92.00;;;;;;5093182;28;20027;-67
2021/09/06 06:15:46;;;;;;;12.07;7.15;;;16.60;91.80;;;;;;5092929;28;20044;-68
2021/09/06 06:18:11;;;;;;;12.38;6.93;;;16.70;92.00;;;;;;5093179;28;20032;-69
2021/09/06 06:20:37;;;;;;;13.48;7.45;;;16.80;92.40;;;;;;5092131;28;20146;-68
2021/09/06 06:23:03;;;;;;;11.90;6.43;;;16.90;91.90;;;;;;5092919;28;20020;-68
2021/09/06 06:25:29;;;;;;;13.73;6.93;;;17.00;92.60;;;;;;5093293;28;20032;-69
2021/09/06 06:27:55;;;;;;;12.10;7.28;;;17.10;92.10;;;;;;5093008;28;20415;-68
2021/09/06 06:30:23;;;;;;;18.20;7.55;;;17.10;91.40;;;;;;5093026;28;20028;-68
2021/09/06 06:32:49;;;;;;;18.42;7.40;;;17.20;91.70;;;;;;5093092;28;20024;-67
2021/09/06 06:35:15;;;;;;;12.25;6.85;;;17.40;94.00;;;;;;5074743;28;20032;-67
2021/09/06 06:37:41;;;;;;;14.02;7.40;;;17.50;91.40;;;;;;5074731;28;20055;-68
2021/09/06 06:40:07;;;;;;;25.58;8.27;;;17.50;90.60;;;;;;5092906;28;20035;-68
2021/09/06 06:42:33;;;;;;;14.55;7.78;;;17.50;90.50;;;;;;5074755;28;20024;-67
2021/09/06 06:44:59;;;;;;;15.73;7.80;;;17.60;90.50;;;;;;5093149;28;20488;-68
2021/09/06 06:47:24;;;;;;;13.43;7.40;;;17.70;90.70;;;;;;5092446;28;20024;-68
2021/09/06 06:49:50;;;;;;;10.90;6.88;;;17.80;90.80;;;;;;5074548;28;20066;-67
2021/09/06 06:52:16;;;;;;;11.57;7.15;;;17.90;90.40;;;;;;5092791;28;20040;-68
2021/09/06 06:54:43;;;;;;;22.55;7.78;;;18.00;89.90;;;;;;5092912;28;20103;-68
2021/09/06 06:57:09;;;;;;;22.70;8.48;;;18.10;90.20;;;;;;5092722;28;20032;-70
2021/09/06 06:59:34;;;;;;;22.13;8.93;;;18.20;89.20;;;;;;5074584;28;20510;-70
2021/09/06 07:02:00;;;;;;;24.95;8.38;;;18.30;89.80;;;;;;5074142;28;20044;-68
2021/09/06 07:04:26;;;;;;;19.67;8.05;;;18.40;89.00;;;;;;5092676;28;20364;-69
2021/09/06 07:06:52;;;;;;;16.23;7.32;;;18.40;87.50;;;;;;5092702;28;20032;-69
2021/09/06 07:09:18;;;;;;;16.60;7.50;;;18.50;87.60;;;;;;5092615;28;20111;-68
2021/09/06 07:11:44;;;;;;;17.05;7.50;;;18.60;88.30;;;;;;5092247;28;20028;-68
2021/09/06 07:14:09;;;;;;;14.23;7.38;;;18.70;88.70;;;;;;5092362;28;20107;-68
2021/09/06 07:16:35;;;;;;;17.48;8.05;;;18.80;88.00;;;;;;5092217;28;20158;-68
2021/09/06 07:19:01;;;;;;;16.60;7.45;;;18.90;87.30;;;;;;5092747;28;20032;-70
2021/09/06 07:21:27;;;;;;;11.48;7.22;;;18.90;87.00;;;;;;5074231;28;20024;-67
2021/09/06 07:23:53;;;;;;;14.77;7.47;;;19.00;86.90;;;;;;5092007;28;20024;-67
2021/09/06 07:26:19;;;;;;;15.85;7.15;;;19.10;86.50;;;;;;5072218;28;20055;-68
2021/09/06 07:28:45;;;;;;;14.18;7.40;;;19.20;85.80;;;;;;5091265;28;20024;-67
2021/09/06 07:31:11;;;;;;;11.32;7.15;;;19.30;85.70;;;;;;5073329;28;20032;-67
2021/09/06 07:33:37;;;;;;;14.73;8.00;;;19.40;85.70;;;;;;5095449;28;20093;-67
2021/09/06 07:36:04;;;;;;;11.85;7.72;;;19.50;84.40;;;;;;5095490;28;20036;-68
2021/09/06 07:38:29;;;;;;;16.25;7.13;;;19.60;85.80;;;;;;5095678;28;20031;-70
2021/09/06 07:40:56;;;;;;;14.98;7.50;;;19.80;84.30;;;;;;5095822;28;20028;-68
2021/09/06 07:43:23;;;;;;;10.73;6.47;;;19.80;82.40;;;;;;5096178;28;20024;-70
2021/09/06 07:45:49;;;;;;;17.63;6.95;;;19.90;84.10;;;;;;5077591;28;20036;-70
2021/09/06 07:48:15;;;;;;;12.85;6.50;;;20.00;84.30;;;;;;5095368;28;20386;-71
2021/09/06 07:50:43;;;;;;;10.68;6.55;;;19.90;82.80;;;;;;5095663;28;20409;-71
2021/09/06 07:53:09;;;;;;;12.20;7.40;;;19.90;83.00;;;;;;5095540;28;20028;-67
2021/09/06 07:55:35;;;;;;;13.35;7.28;;;19.80;82.20;;;;;;5095516;28;20031;-68
2021/09/06 07:58:01;;;;;;;10.65;7.13;;;19.90;82.60;;;;;;5095458;28;20472;-69
2021/09/06 08:00:27;;;;;;;11.85;6.70;;;20.00;83.10;;;;;;5095487;28;20035;-68
2021/09/06 08:02:53;;;;;;;13.10;6.90;;;20.00;82.50;;;;;;5094900;28;20040;-69
2021/09/06 08:05:20;;;;;;;11.95;7.00;;;20.20;82.60;;;;;;5095387;28;20035;-68
2021/09/06 08:07:47;;;;;;;11.30;6.10;;;;;;;;;;5095337;28;20024;-68
2021/09/06 08:10:13;;;;;;;11.52;7.13;;;20.90;99.90;;;;;;5095533;28;20460;-66
2021/09/06 08:12:39;;;;;;;12.80;6.68;;;21.00;78.50;;;;;;5095276;28;20024;-67
2021/09/06 08:15:07;;;;;;;14.98;7.43;;;21.30;79.00;;;;;;5095124;28;20036;-66
2021/09/06 08:17:34;;;;;;;11.55;7.25;;;21.40;92.10;;;;;;5095109;28;20067;-67
2021/09/06 08:20:05;;;;;;;23.15;8.15;;;21.40;78.60;;;;;;5095110;28;20111;-67
2021/09/06 08:22:33;;;;;;;17.20;6.65;;;21.40;78.50;;;;;;5076415;28;20032;-67
2021/09/06 08:25:00;;;;;;;13.88;7.13;;;21.60;78.30;;;;;;5094497;28;20432;-66
2021/09/06 08:27:26;;;;;;;7.03;5.93;;;21.60;78.20;;;;;;5094834;28;20487;-70
2021/09/06 08:29:51;;;;;;;12.55;7.07;;;21.60;79.10;;;;;;5094666;28;20024;-68
2021/09/06 08:32:18;;;;;;;12.05;6.63;;;21.90;83.90;;;;;;5076441;28;20461;-68
2021/09/06 08:34:44;;;;;;;14.43;6.32;;;22.00;77.90;;;;;;5094570;28;20067;-68
2021/09/06 08:37:09;;;;;;;11.05;6.75;;;22.20;77.70;;;;;;5076508;28;20032;-68
2021/09/06 08:39:37;;;;;;;10.77;7.25;;;22.40;75.90;;;;;;5076388;28;20469;-68
2021/09/06 08:42:03;;;;;;;21.65;7.28;;;22.80;90.10;;;;;;5093983;28;20035;-68
2021/09/06 08:44:29;;;;;;;9.65;7.40;;;22.50;75.00;;;;;;5075768;28;20077;-68
2021/09/06 08:46:55;;;;;;;11.43;6.55;;;22.50;74.70;;;;;;5075821;28;20115;-68
2021/09/06 08:49:21;;;;;;;9.38;6.32;;;22.20;75.50;;;;;;5094357;28;20028;-68
2021/09/06 08:51:48;;;;;;;11.50;6.55;;;22.20;76.40;;;;;;5075923;28;20111;-68
2021/09/06 08:54:14;;;;;;;9.63;7.22;;;22.70;92.20;;;;;;5076055;28;20035;-68
2021/09/06 08:56:40;;;;;;;11.73;6.80;;;22.90;75.50;;;;;;5075827;28;20325;-68
2021/09/06 08:59:07;;;;;;;11.68;6.65;;;22.90;78.00;;;;;;5094244;28;20020;-69
2021/09/06 09:01:44;;;;;;;14.32;7.38;;;23.20;73.40;;;;;;5093491;28;20538;-65
2021/09/06 09:04:21;;;;;;;13.90;7.20;;;23.50;73.50;;;;;;5094153;28;20530;-68
2021/09/06 09:06:58;;;;;;;15.10;7.32;;;23.60;72.60;;;;;;5094213;28;20024;-68
2021/09/06 09:09:32;;;;;;;14.07;7.50;;;23.70;72.10;;;;;;5094187;28;20016;-68
2021/09/06 09:12:16;;;;;;;16.30;6.93;;;23.90;70.50;;;;;;5094166;28;20028;-65
2021/09/06 09:14:51;;;;;;;14.88;6.60;;;23.70;70.90;;;;;;5094040;28;20172;-69
2021/09/06 09:17:18;;;;;;;14.45;6.32;;;23.90;70.50;;;;;;5075597;28;20028;-69
2021/09/06 09:19:45;;;;;;;8.30;5.90;;;24.00;70.20;;;;;;5093836;28;20024;-68
2021/09/06 09:22:15;;;;;;;8.85;6.15;;;24.10;69.40;;;;;;5093637;28;20381;-68
2021/09/06 09:24:42;;;;;;;10.35;6.30;;;24.20;68.90;;;;;;5075581;28;20085;-68
2021/09/06 09:27:17;;;;;;;14.10;6.65;;;24.30;68.70;;;;;;5075599;28;20432;-68
2021/09/06 09:29:44;;;;;;;14.75;6.32;;;24.30;68.30;;;;;;5075469;28;20475;-67
2021/09/06 09:32:12;;;;;;;12.70;6.13;;;24.70;68.40;;;;;;5093143;28;20418;-67
2021/09/06 09:34:43;;;;;;;13.18;6.28;;;24.60;68.00;;;;;;5091768;28;20440;-68
2021/09/06 09:37:10;;;;;;;11.35;5.95;;;24.70;66.20;;;;;;5093466;28;20032;-68
2021/09/06 09:39:37;;;;;;;13.50;6.18;;;24.90;67.50;;;;;;5093588;28;20043;-68
2021/09/06 09:42:10;;;;;;;10.60;6.20;;;24.80;66.80;;;;;;5093453;28;20472;-66
2021/09/06 09:44:45;;;;;;;13.90;6.68;;;24.90;67.50;;;;;;5075249;28;20036;-68
2021/09/06 09:47:12;;;;;;;10.35;6.57;;;25.10;67.50;;;;;;5093439;28;20059;-67
2021/09/06 09:49:38;;;;;;;12.90;7.20;;;25.10;67.70;;;;;;5093468;28;20091;-65
2021/09/06 09:52:06;;;;;;;15.30;7.25;;;25.00;67.00;;;;;;5093317;28;20031;-67
2021/09/06 09:54:33;;;;;;;13.55;7.72;;;25.10;68.40;;;;;;5092622;28;20043;-68
2021/09/06 09:56:59;;;;;;;17.80;7.63;;;24.90;68.30;;;;;;5093049;28;20103;-67
2021/09/06 09:59:28;;;;;;;16.70;7.57;;;24.80;68.00;;;;;;5092996;28;20406;-70
2021/09/06 10:02:20;;;;;;;11.80;7.35;;;24.50;68.60;;;;;;5092942;28;20089;-69
2021/09/06 10:04:51;;;;;;;9.32;7.75;;;24.60;68.50;;;;;;5070494;28;20032;-68
2021/09/06 10:07:24;;;;;;;10.32;6.90;;;24.50;69.30;;;;;;5075004;28;20035;-71
2021/09/06 10:09:50;;;;;;;16.38;8.20;;;24.60;68.60;;;;;;5092876;28;20028;-68
2021/09/06 10:12:22;;;;;;;19.80;8.45;;;24.60;69.70;;;;;;5074911;28;20020;-68
2021/09/06 10:14:50;;;;;;;13.07;7.47;;;24.70;69.10;;;;;;5074922;28;20047;-70
2021/09/06 10:17:16;;;;;;;13.48;6.97;;;24.70;69.20;;;;;;5093069;28;20419;-69
2021/09/06 10:19:44;;;;;;;14.30;7.00;;;24.60;69.80;;;;;;5092697;28;20490;-68
2021/09/06 10:22:26;;;;;;;12.60;8.10;;;24.50;69.40;;;;;;5093072;28;20016;-69
2021/09/06 10:25:27;;;;;;;13.32;7.40;;;24.50;69.60;;;;;;5093116;28;20032;-70
2021/09/06 10:27:58;;;;;;;15.70;8.30;;;24.70;69.40;;;;;;5091925;28;20066;-69
2021/09/06 10:30:34;;;;;;;16.80;7.55;;;24.60;69.50;;;;;;5092963;28;20028;-69
2021/09/06 10:33:00;;;;;;;12.98;6.82;;;25.10;69.70;;;;;;5074803;28;20496;-70
2021/09/06 10:35:27;;;;;;;17.23;7.35;;;25.90;67.50;;;;;;5093541;28;20059;-72
2021/09/06 10:38:26;;;;;;;9.52;5.90;;;;;;;;;;5076407;28;20032;-70
2021/09/06 10:40:52;;;;;;;10.52;6.38;;;29.60;60.00;;;;;;5012803;28;20056;-69
2021/09/06 10:43:25;;;;;;;12.05;6.15;;;29.80;59.80;;;;;;4995589;28;20030;-71
2021/09/06 10:45:53;;;;;;;9.05;6.38;;;30.40;57.60;;;;;;5011490;28;20045;-74
2021/09/06 10:48:21;;;;;;;15.05;6.63;;;31.20;56.70;;;;;;5001004;28;20054;-72
2021/09/06 10:50:49;;;;;;;15.93;6.85;;;31.80;55.60;;;;;;5010722;28;20049;-72
2021/09/06 10:53:25;;;;;;;12.40;6.20;;;32.60;54.30;;;;;;4995151;28;20109;-71
2021/09/06 10:55:53;;;;;;;9.93;5.90;;;32.70;51.70;;;;;;5011093;28;20085;-70
2021/09/06 10:58:24;;;;;;;11.85;6.03;;;33.50;52.40;;;;;;4993849;28;20041;-69
2021/09/06 11:00:55;;;;;;;10.20;5.78;;;33.90;50.30;;;;;;5010134;28;20026;-69
2021/09/06 11:03:23;;;;;;;12.50;6.10;;;34.20;50.90;;;;;;5009998;28;20049;-69
2021/09/06 11:05:58;;;;;;;10.30;6.22;;;34.20;48.80;;;;;;4994699;28;20034;-72
2021/09/06 11:08:32;;;;;;;8.95;5.80;;;34.30;48.90;;;;;;5014064;28;20037;-71
2021/09/06 11:11:00;;;;;;;16.77;6.15;;;35.20;48.60;;;;;;5013902;28;20071;-72
2021/09/06 11:13:40;;;;;;;10.80;5.25;;;35.60;46.90;;;;;;5013733;28;20034;-70
2021/09/06 11:16:11;;;;;;;8.35;5.70;;;35.10;46.40;;;;;;5043711;28;20149;-71
2021/09/06 11:18:45;;;;;;;10.27;5.93;;;34.10;48.10;;;;;;5077528;28;20155;-71
2021/09/06 11:21:11;;;;;;;16.48;6.07;;;33.10;49.70;;;;;;5095988;28;20024;-70
2021/09/06 11:23:45;;;;;;;11.85;6.10;;;33.10;50.20;;;;;;5095814;28;20028;-70
2021/09/06 11:26:24;;;;;;;12.48;6.63;;;31.90;51.40;;;;;;5096181;28;20024;-68
2021/09/06 11:28:50;;;;;;;14.52;5.85;;;30.90;52.30;;;;;;5095945;28;20035;-68
2021/09/06 11:31:17;;;;;;;11.32;6.35;;;30.10;57.10;;;;;;5077667;28;20028;-68
2021/09/06 11:33:43;;;;;;;11.50;5.78;;;29.70;54.90;;;;;;5095815;28;20024;-69
2021/09/06 11:36:17;;;;;;;14.57;5.90;;;29.90;55.40;;;;;;5095942;28;20031;-69
2021/09/06 11:38:44;;;;;;;12.93;5.35;;;29.90;54.30;;;;;;5095740;28;20036;-67
2021/09/06 11:41:10;;;;;;;9.55;5.93;;;29.40;56.30;;;;;;5095655;28;20039;-68
2021/09/06 11:43:36;;;;;;;9.02;5.40;;;29.30;55.40;;;;;;5077306;28;20028;-67
2021/09/06 11:46:03;;;;;;;10.93;5.80;;;29.10;55.90;;;;;;5077493;28;20036;-67
2021/09/06 11:48:50;;;;;;;9.13;5.38;;;29.00;56.60;;;;;;5097149;28;20016;-71
2021/09/06 11:51:17;;;;;;;10.45;4.82;;;31.40;53.50;;;;;;5076370;28;20108;-69
2021/09/06 11:53:55;;;;;;;7.40;5.25;;;33.90;50.20;;;;;;5056951;28;20480;-68
2021/09/06 11:56:21;;;;;;;10.25;5.28;;;32.00;50.90;;;;;;5074860;28;20453;-67
2021/09/06 11:58:46;;;;;;;9.15;5.10;;;31.00;52.80;;;;;;5074999;28;20028;-68
2021/09/06 12:01:16;;;;;;;10.30;4.95;;;30.20;54.30;;;;;;5072523;28;20409;-66
2021/09/06 12:03:44;;;;;;;8.25;4.45;;;29.70;53.70;;;;;;5056903;28;20078;-68
2021/09/06 12:06:16;;;;;;;11.25;5.20;;;29.10;53.80;;;;;;5075280;28;20031;-67
2021/09/06 12:08:51;;;;;;;9.75;4.57;;;28.80;54.30;;;;;;5075030;28;20539;-66
2021/09/06 12:11:17;;;;;;;7.38;4.68;;;28.60;54.50;;;;;;5074833;28;20036;-68
2021/09/06 12:13:54;;;;;;;8.98;4.35;;;28.30;55.80;;;;;;5056605;28;20075;-71
2021/09/06 12:16:20;;;;;;;10.13;5.28;;;28.40;56.90;;;;;;5074935;28;20070;-68
2021/09/06 12:18:47;;;;;;;10.30;5.30;;;31.00;55.30;;;;;;5073848;28;20025;-69
2021/09/06 12:21:18;;;;;;;8.07;5.13;;;33.70;50.50;;;;;;5074802;28;20035;-68
2021/09/06 12:23:46;;;;;;;6.10;5.03;;;36.10;46.30;;;;;;5074638;28;20025;-68
2021/09/06 12:26:13;;;;;;;8.27;5.35;;;37.60;46.10;;;;;;5056624;28;20036;-68
2021/09/06 12:28:47;;;;;;;8.77;5.25;;;39.00;43.80;;;;;;5074835;28;20025;-70
2021/09/06 12:31:13;;;;;;;8.23;5.30;;;39.80;42.40;;;;;;5056396;28;20035;-68
2021/09/06 12:33:38;;;;;;;8.40;4.70;;;40.40;42.40;;;;;;5074112;28;20400;-69
2021/09/06 12:36:05;;;;;;;5.90;4.72;;;40.60;41.60;;;;;;5074384;28;20028;-69
2021/09/06 12:38:32;;;;;;;9.25;4.90;;;40.80;41.70;;;;;;5074319;28;20027;-71
2021/09/06 12:40:58;;;;;;;6.85;4.82;;;40.80;41.20;;;;;;5074348;28;20096;-70